createdAt,value
2024-03-14T00:00:19.839Z,9.65
2024-03-14T00:02:47.884Z,9.64
2024-03-14T00:05:15.879Z,9.58
2024-03-14T00:07:43.353Z,9.55
2024-03-14T00:10:11.526Z,9.48
2024-03-14T00:12:38.756Z,9.48
2024-03-14T00:15:07.632Z,9.43
2024-03-14T00:17:35.372Z,9.42
2024-03-14T00:20:05.410Z,9.38
2024-03-14T00:22:33.149Z,9.38
2024-03-14T00:25:00.166Z,9.38
2024-03-14T00:27:27.247Z,9.36
2024-03-14T00:29:57.177Z,9.34
2024-03-14T00:32:26.043Z,9.34
2024-03-14T00:34:53.063Z,9.34
2024-03-14T00:37:20.132Z,9.32
2024-03-14T00:39:47.594Z,9.32
2024-03-14T00:42:15.315Z,9.33
2024-03-14T00:44:43.726Z,9.32
2024-03-14T00:47:10.812Z,9.35
2024-03-14T00:49:39.885Z,9.37
2024-03-14T00:52:07.035Z,9.37
2024-03-14T00:54:35.177Z,9.37
2024-03-14T00:57:04.199Z,9.37
2024-03-14T00:59:32.092Z,9.37
2024-03-14T01:01:59.462Z,9.35
2024-03-14T01:04:26.597Z,9.34
2024-03-14T01:06:54.234Z,9.33
2024-03-14T01:09:26.844Z,9.32
2024-03-14T01:11:54.587Z,9.32
2024-03-14T01:14:25.979Z,9.31
2024-03-14T01:16:53.076Z,9.31
2024-03-14T01:19:20.387Z,9.30
2024-03-14T01:21:47.492Z,9.28
2024-03-14T01:24:15.310Z,9.26
2024-03-14T01:26:43.841Z,9.24
2024-03-14T01:29:12.429Z,9.23
2024-03-14T01:31:39.967Z,9.21
2024-03-14T01:34:07.287Z,9.16
2024-03-14T01:36:38.733Z,9.14
2024-03-14T01:39:12.494Z,9.10
2024-03-14T01:41:39.817Z,9.06
2024-03-14T01:44:07.105Z,9.02
2024-03-14T01:46:34.925Z,9.01
2024-03-14T01:49:03.268Z,9.00
2024-03-14T01:51:31.877Z,8.97
2024-03-14T01:54:01.137Z,8.95
2024-03-14T01:56:34.437Z,8.94
2024-03-14T01:59:02.868Z,8.94
2024-03-14T02:01:29.920Z,8.93
2024-03-14T02:04:18.751Z,8.94
2024-03-14T02:06:54.289Z,8.97
2024-03-14T02:09:24.139Z,8.98
2024-03-14T02:11:52.073Z,9.00
2024-03-14T02:14:19.322Z,8.99
2024-03-14T02:16:46.316Z,9.04
2024-03-14T02:19:13.431Z,9.05
2024-03-14T02:21:43.592Z,9.03
2024-03-14T02:24:10.595Z,9.02
2024-03-14T02:26:41.903Z,8.98
2024-03-14T02:29:09.048Z,8.98
2024-03-14T02:31:41.489Z,8.97
2024-03-14T02:34:08.521Z,8.90
2024-03-14T02:36:36.842Z,8.90
2024-03-14T02:39:06.509Z,8.86
2024-03-14T02:41:33.510Z,8.85
2024-03-14T02:44:00.477Z,8.81
2024-03-14T02:46:27.487Z,8.79
2024-03-14T02:48:57.306Z,8.77
2024-03-14T02:51:24.380Z,8.75
2024-03-14T02:53:51.511Z,8.70
2024-03-14T02:56:18.804Z,8.71
2024-03-14T02:58:45.741Z,8.66
2024-03-14T03:01:13.779Z,8.61
2024-03-14T03:03:43.029Z,8.57
2024-03-14T03:06:12.902Z,8.55
2024-03-14T03:08:40.078Z,8.51
2024-03-14T03:11:08.169Z,8.48
2024-03-14T03:13:35.505Z,8.45
2024-03-14T03:16:05.657Z,8.42
2024-03-14T03:18:36.574Z,8.42
2024-03-14T03:21:03.879Z,8.40
2024-03-14T03:23:31.972Z,8.39
2024-03-14T03:25:59.213Z,8.38
2024-03-14T03:28:29.102Z,8.36
2024-03-14T03:30:57.034Z,8.32
2024-03-14T03:33:25.434Z,8.32
2024-03-14T03:35:52.612Z,8.29
2024-03-14T03:38:20.101Z,8.26
2024-03-14T03:40:47.028Z,8.25
2024-03-14T03:43:14.063Z,8.22
2024-03-14T03:45:41.193Z,8.20
2024-03-14T03:48:13.200Z,8.19
2024-03-14T03:50:43.927Z,8.18
2024-03-14T03:53:10.880Z,8.16
2024-03-14T03:55:38.197Z,8.17
2024-03-14T03:58:05.793Z,8.14
2024-03-14T04:00:38.094Z,8.13
2024-03-14T04:03:11.018Z,8.12
2024-03-14T04:05:39.306Z,8.12
2024-03-14T04:08:07.013Z,8.09
2024-03-14T04:10:35.083Z,8.06
2024-03-14T04:13:02.889Z,8.04
2024-03-14T04:15:30.509Z,8.02
2024-03-14T04:17:59.220Z,8.04
2024-03-14T04:20:29.476Z,8.03
2024-03-14T04:23:00.654Z,8.02
2024-03-14T04:25:27.716Z,7.97
2024-03-14T04:27:54.956Z,7.93
2024-03-14T04:30:23.075Z,7.91
2024-03-14T04:32:53.650Z,7.89
2024-03-14T04:35:23.572Z,7.92
2024-03-14T04:37:51.177Z,7.90
2024-03-14T04:40:18.497Z,7.86
2024-03-14T04:42:48.119Z,7.83
2024-03-14T04:45:23.134Z,7.81
2024-03-14T04:47:50.629Z,7.79
2024-03-14T04:50:22.964Z,7.75
2024-03-14T04:52:55.750Z,7.71
2024-03-14T04:55:24.755Z,7.69
2024-03-14T04:57:51.719Z,7.66
2024-03-14T05:00:23.357Z,7.64
2024-03-14T05:02:52.736Z,7.62
2024-03-14T05:05:22.972Z,7.61
2024-03-14T05:07:51.707Z,7.57
2024-03-14T05:10:22.692Z,7.55
2024-03-14T05:12:50.417Z,7.56
2024-03-14T05:15:18.283Z,7.56
2024-03-14T05:17:47.183Z,7.57
2024-03-14T05:20:15.811Z,7.55
2024-03-14T05:22:44.690Z,7.52
2024-03-14T05:25:14.192Z,7.53
2024-03-14T05:27:51.429Z,7.51
2024-03-14T05:30:19.928Z,7.52
2024-03-14T05:32:47.070Z,7.51
2024-03-14T05:35:14.199Z,7.46
2024-03-14T05:37:44.310Z,7.45
2024-03-14T05:40:11.900Z,7.46
2024-03-14T05:42:39.433Z,7.43
2024-03-14T05:45:07.105Z,7.43
2024-03-14T05:47:36.783Z,7.44
2024-03-14T05:50:09.025Z,7.40
2024-03-14T05:52:41.288Z,7.39
2024-03-14T05:55:11.744Z,7.43
2024-03-14T05:57:39.374Z,7.43
2024-03-14T06:00:07.289Z,7.41
2024-03-14T06:02:44.957Z,7.41
2024-03-14T06:05:11.981Z,7.40
2024-03-14T06:07:39.515Z,7.42
2024-03-14T06:10:08.433Z,7.43
2024-03-14T06:12:38.588Z,7.43
2024-03-14T06:15:13.448Z,7.44
2024-03-14T06:17:42.310Z,7.47
2024-03-14T06:20:10.773Z,7.50
2024-03-14T06:22:41.068Z,7.53
2024-03-14T06:25:08.765Z,7.55
2024-03-14T06:27:36.157Z,7.59
2024-03-14T06:30:05.926Z,7.63
2024-03-14T06:32:34.535Z,7.67
2024-03-14T06:35:01.549Z,7.70
2024-03-14T06:37:29.300Z,7.77
2024-03-14T06:39:56.392Z,7.84
2024-03-14T06:42:24.590Z,7.90
2024-03-14T06:44:56.985Z,7.97
2024-03-14T06:47:24.962Z,8.03
2024-03-14T06:49:52.656Z,8.09
2024-03-14T06:52:19.649Z,8.17
2024-03-14T06:54:46.662Z,8.22
2024-03-14T06:57:13.620Z,8.29
2024-03-14T06:59:41.241Z,8.35
2024-03-14T07:02:09.341Z,8.41
2024-03-14T07:04:36.457Z,8.48
2024-03-14T07:07:03.502Z,8.56
2024-03-14T07:09:31.980Z,8.63
2024-03-14T07:11:59.949Z,8.73
2024-03-14T07:14:27.080Z,8.88
2024-03-14T07:16:55.221Z,9.20
2024-03-14T07:19:25.180Z,11.52
2024-03-14T07:21:55.195Z,14.53
2024-03-14T07:24:26.693Z,16.67
2024-03-14T07:27:10.550Z,18.22
2024-03-14T07:29:37.763Z,19.51
2024-03-14T07:32:05.966Z,19.83
2024-03-14T07:34:36.108Z,21.02
2024-03-14T07:37:03.354Z,21.90
2024-03-14T07:39:31.757Z,22.47
2024-03-14T07:41:59.449Z,22.58
2024-03-14T07:47:05.272Z,23.66
2024-03-14T07:49:34.713Z,23.56
2024-03-14T07:52:01.674Z,23.10
2024-03-14T07:54:29.006Z,21.18
2024-03-14T07:56:56.139Z,17.82
2024-03-14T07:59:26.223Z,15.40
2024-03-14T08:01:53.958Z,14.02
2024-03-14T08:04:25.206Z,13.16
2024-03-14T08:06:52.479Z,12.64
2024-03-14T08:09:21.509Z,12.37
2024-03-14T08:11:48.506Z,12.05
2024-03-14T08:14:16.463Z,12.93
2024-03-14T08:16:47.574Z,17.61
2024-03-14T08:19:17.200Z,20.59
2024-03-14T08:21:49.577Z,23.13
2024-03-14T08:24:18.128Z,23.60
2024-03-14T08:26:48.594Z,25.02
2024-03-14T08:29:16.321Z,26.47
2024-03-14T08:31:44.950Z,26.89
2024-03-14T08:34:13.210Z,26.82
2024-03-14T08:36:45.433Z,26.65
2024-03-14T08:39:14.047Z,26.98
2024-03-14T08:41:41.261Z,26.99
2024-03-14T08:44:08.527Z,27.53
2024-03-14T08:46:37.010Z,27.31
2024-03-14T08:49:04.963Z,27.88
2024-03-14T08:51:39.851Z,29.06
2024-03-14T08:54:11.184Z,28.69
2024-03-14T08:56:39.010Z,26.92
2024-03-14T08:59:14.908Z,25.48
2024-03-14T09:01:47.039Z,24.35
2024-03-14T09:04:20.317Z,23.00
2024-03-14T09:06:51.890Z,24.23
2024-03-14T09:09:36.031Z,25.46
2024-03-14T09:12:17.725Z,25.95
2024-03-14T09:14:45.179Z,25.94
2024-03-14T09:17:13.015Z,23.89
2024-03-14T09:19:51.346Z,24.54
2024-03-14T09:22:18.942Z,25.46
2024-03-14T09:24:46.052Z,25.17
2024-03-14T09:27:35.641Z,24.77
2024-03-14T09:30:10.237Z,21.64
2024-03-14T09:32:37.421Z,21.31
2024-03-14T09:35:11.149Z,20.62
2024-03-14T09:37:38.265Z,21.24
2024-03-14T09:40:08.372Z,22.50
2024-03-14T09:42:35.599Z,22.47
2024-03-14T09:45:02.909Z,23.24
2024-03-14T09:51:08.822Z,23.17
2024-03-14T09:53:39.126Z,22.49
2024-03-14T09:56:06.586Z,22.33
2024-03-14T09:58:34.396Z,21.59
2024-03-14T10:01:05.680Z,22.33
2024-03-14T10:03:35.733Z,25.57
2024-03-14T10:06:16.346Z,25.85
2024-03-14T10:09:00.823Z,24.66
2024-03-14T10:11:29.668Z,24.05
2024-03-14T10:14:08.243Z,23.91
2024-03-14T10:16:36.008Z,24.55
2024-03-14T10:19:03.783Z,23.96
2024-03-14T10:21:31.103Z,23.64
2024-03-14T10:23:59.184Z,25.63
2024-03-14T10:26:26.393Z,26.82
2024-03-14T10:28:53.431Z,26.72
2024-03-14T10:31:22.760Z,27.73
2024-03-14T10:33:50.740Z,27.54
2024-03-14T10:36:20.353Z,27.27
2024-03-14T10:38:51.980Z,27.14
2024-03-14T10:41:22.467Z,27.44
2024-03-14T10:43:59.500Z,28.41
2024-03-14T10:46:28.760Z,27.47
2024-03-14T10:48:57.166Z,27.71
2024-03-14T10:51:28.467Z,27.24
2024-03-14T10:53:57.448Z,26.07
2024-03-14T10:56:27.131Z,25.84
2024-03-14T10:58:57.507Z,25.61
2024-03-14T11:01:27.499Z,24.54
2024-03-14T11:03:55.088Z,22.85
2024-03-14T11:06:26.171Z,22.27
2024-03-14T11:08:56.748Z,21.23
2024-03-14T11:11:26.140Z,20.07
2024-03-14T11:13:54.840Z,19.08
2024-03-14T11:16:26.814Z,18.87
2024-03-14T11:19:02.223Z,19.22
2024-03-14T11:21:36.262Z,19.69
2024-03-14T11:24:11.762Z,20.70
2024-03-14T11:26:44.732Z,21.17
2024-03-14T11:29:16.501Z,20.32
2024-03-14T11:31:45.741Z,19.82
2024-03-14T11:34:19.844Z,19.59
2024-03-14T11:36:50.207Z,19.58
2024-03-14T11:39:28.049Z,19.38
2024-03-14T11:42:13.696Z,18.96
2024-03-14T11:44:48.180Z,18.88
2024-03-14T11:47:42.107Z,18.86
2024-03-14T11:50:14.771Z,18.77
2024-03-14T11:52:43.398Z,18.84
2024-03-14T11:55:13.264Z,19.16
2024-03-14T11:57:45.814Z,19.05
2024-03-14T12:00:13.270Z,18.91
2024-03-14T12:02:41.721Z,18.87
2024-03-14T12:05:21.379Z,18.80
2024-03-14T12:07:48.492Z,18.85
2024-03-14T12:10:17.226Z,19.07
2024-03-14T12:12:44.917Z,19.24
2024-03-14T12:15:12.093Z,19.21
2024-03-14T12:17:39.263Z,19.06
2024-03-14T12:20:12.191Z,19.03
2024-03-14T12:22:47.466Z,18.75
2024-03-14T12:25:17.476Z,18.71
2024-03-14T12:27:45.339Z,19.07
2024-03-14T12:30:12.789Z,19.27
2024-03-14T12:32:42.425Z,19.30
2024-03-14T12:35:14.722Z,19.44
2024-03-14T12:37:41.944Z,19.28
2024-03-14T12:40:15.524Z,19.16
2024-03-14T12:42:47.588Z,18.84
2024-03-14T12:45:17.820Z,18.58
2024-03-14T12:47:48.873Z,18.33
2024-03-14T12:50:29.608Z,18.63
2024-03-14T12:53:08.732Z,18.76
2024-03-14T12:55:35.979Z,18.73
2024-03-14T12:58:07.102Z,18.67
2024-03-14T13:00:36.200Z,18.57
2024-03-14T13:03:03.531Z,18.63
2024-03-14T13:05:30.766Z,18.65
2024-03-14T13:08:05.661Z,18.80
2024-03-14T13:10:36.910Z,18.71
2024-03-14T13:13:05.244Z,18.61
2024-03-14T13:15:38.765Z,18.70
2024-03-14T13:18:14.532Z,19.00
2024-03-14T13:20:47.831Z,18.90
2024-03-14T13:23:15.246Z,18.91
2024-03-14T13:25:44.044Z,18.85
2024-03-14T13:28:11.387Z,18.74
2024-03-14T13:30:38.558Z,18.74
2024-03-14T13:33:11.294Z,18.73
2024-03-14T13:35:41.874Z,18.72
2024-03-14T13:38:09.194Z,18.70
2024-03-14T13:40:36.244Z,18.61
2024-03-14T13:43:08.356Z,18.36
2024-03-14T13:45:45.226Z,18.37
2024-03-14T13:48:12.469Z,18.57
2024-03-14T13:50:42.381Z,18.71
2024-03-14T13:53:09.395Z,18.77
2024-03-14T13:55:38.477Z,18.75
2024-03-14T13:58:07.799Z,18.96
2024-03-14T14:00:48.482Z,19.14
2024-03-14T14:03:20.924Z,19.25
2024-03-14T14:05:49.795Z,19.25
2024-03-14T14:08:17.122Z,19.21
2024-03-14T14:10:46.883Z,19.16
2024-03-14T14:13:14.737Z,19.04
2024-03-14T14:15:44.757Z,18.97
2024-03-14T14:18:12.628Z,18.92
2024-03-14T14:20:42.091Z,18.79
2024-03-14T14:23:09.630Z,18.76
2024-03-14T14:25:39.819Z,18.56
2024-03-14T14:28:08.959Z,18.40
2024-03-14T14:30:37.605Z,18.31
2024-03-14T14:33:05.305Z,18.29
2024-03-14T14:35:32.474Z,18.27
2024-03-14T14:37:59.453Z,18.31
2024-03-14T14:40:26.615Z,18.32
2024-03-14T14:42:59.249Z,18.31
2024-03-14T14:45:26.871Z,18.40
2024-03-14T14:47:53.992Z,18.42
2024-03-14T14:50:21.306Z,18.33
2024-03-14T14:52:48.594Z,18.16
2024-03-14T14:55:15.817Z,18.11
2024-03-14T14:57:47.958Z,18.14
2024-03-14T15:00:16.681Z,18.21
2024-03-14T15:02:46.905Z,18.17
2024-03-14T15:05:14.500Z,18.01
2024-03-14T15:07:44.777Z,17.99
2024-03-14T15:10:13.771Z,17.96
2024-03-14T15:12:50.032Z,18.02
2024-03-14T15:15:24.444Z,18.08
2024-03-14T15:17:52.331Z,18.07
2024-03-14T15:20:23.133Z,18.03
2024-03-14T15:22:54.400Z,18.04
2024-03-14T15:25:22.990Z,18.13
2024-03-14T15:27:51.005Z,18.13
2024-03-14T15:30:19.999Z,18.02
2024-03-14T15:32:47.792Z,17.93
2024-03-14T15:35:16.964Z,17.97
2024-03-14T15:37:46.003Z,17.85
2024-03-14T15:40:17.250Z,17.73
2024-03-14T15:42:45.528Z,17.72
2024-03-14T15:45:18.695Z,17.71
2024-03-14T15:47:49.914Z,17.63
2024-03-14T15:50:19.387Z,17.59
2024-03-14T15:52:46.548Z,17.55
2024-03-14T15:55:15.941Z,17.51
2024-03-14T15:57:48.747Z,17.50
2024-03-14T16:00:18.048Z,17.49
2024-03-14T16:02:46.196Z,17.46
2024-03-14T16:05:17.697Z,17.47
2024-03-14T16:07:46.870Z,17.46
2024-03-14T16:10:14.239Z,17.44
2024-03-14T16:12:42.117Z,17.38
2024-03-14T16:15:13.615Z,17.32
2024-03-14T16:17:41.456Z,17.30
2024-03-14T16:20:48.882Z,17.22
2024-03-14T16:23:16.552Z,17.14
2024-03-14T16:25:43.554Z,17.08
2024-03-14T16:28:11.180Z,17.06
2024-03-14T16:30:38.904Z,17.02
2024-03-14T16:33:08.058Z,16.96
2024-03-14T16:35:37.801Z,16.90
2024-03-14T16:38:04.954Z,16.84
2024-03-14T16:40:33.585Z,16.73
2024-03-14T16:43:01.357Z,16.66
2024-03-14T16:45:33.194Z,16.61
2024-03-14T16:48:02.977Z,16.51
2024-03-14T16:50:31.820Z,16.45
2024-03-14T16:52:59.614Z,16.35
2024-03-14T16:55:29.628Z,16.30
2024-03-14T16:57:58.971Z,16.22
2024-03-14T17:00:31.584Z,16.19
2024-03-14T17:02:59.821Z,16.13
2024-03-14T17:05:26.942Z,16.04
2024-03-14T17:07:53.978Z,16.02
2024-03-14T17:10:24.599Z,15.95
2024-03-14T17:12:52.412Z,15.87
2024-03-14T17:15:19.719Z,15.84
2024-03-14T17:17:47.075Z,15.77
2024-03-14T17:20:15.619Z,15.71
2024-03-14T17:22:43.540Z,15.68
2024-03-14T17:25:12.130Z,15.63
2024-03-14T17:27:41.811Z,15.57
2024-03-14T17:30:09.808Z,15.51
2024-03-14T17:32:38.787Z,15.46
2024-03-14T17:35:08.554Z,15.40
2024-03-14T17:37:36.288Z,15.34
2024-03-14T17:40:13.279Z,15.27
2024-03-14T17:42:44.722Z,15.22
2024-03-14T17:45:18.983Z,15.18
2024-03-14T17:47:48.095Z,15.11
2024-03-14T17:50:16.535Z,15.03
2024-03-14T17:52:46.806Z,14.95
2024-03-14T17:55:15.223Z,14.92
2024-03-14T17:57:44.120Z,14.90
2024-03-14T18:00:12.364Z,14.88
2024-03-14T18:02:40.896Z,14.85
2024-03-14T18:05:14.205Z,14.82
2024-03-14T18:07:45.277Z,14.75
2024-03-14T18:10:15.972Z,14.70
2024-03-14T18:12:44.855Z,14.71
2024-03-14T18:15:14.838Z,14.68
2024-03-14T18:17:43.089Z,14.65
2024-03-14T18:20:10.884Z,14.62
2024-03-14T18:22:39.341Z,14.62
2024-03-14T18:25:06.634Z,14.60
2024-03-14T18:27:35.236Z,14.57
2024-03-14T18:30:03.118Z,14.56
2024-03-14T18:32:30.131Z,14.51
2024-03-14T18:34:57.076Z,14.52
2024-03-14T18:37:24.363Z,14.48
2024-03-14T18:39:54.221Z,14.42
2024-03-14T18:42:21.440Z,14.39
2024-03-14T18:44:58.574Z,14.36
2024-03-14T18:47:25.590Z,14.35
2024-03-14T18:49:53.564Z,14.34
2024-03-14T18:52:20.630Z,14.35
2024-03-14T18:54:49.878Z,14.34
2024-03-14T18:57:17.945Z,14.31
2024-03-14T18:59:47.148Z,14.31
2024-03-14T19:02:15.129Z,14.33
2024-03-14T19:04:43.882Z,14.33
2024-03-14T19:07:11.006Z,14.31
2024-03-14T19:09:38.382Z,14.29
2024-03-14T19:12:06.649Z,14.26
2024-03-14T19:14:34.902Z,14.24
2024-03-14T19:17:01.897Z,14.20
2024-03-14T19:19:31.892Z,14.18
2024-03-14T19:21:58.882Z,14.13
2024-03-14T19:24:26.133Z,14.10
2024-03-14T19:26:53.975Z,14.04
2024-03-14T19:29:24.320Z,14.00
2024-03-14T19:31:54.662Z,14.00
2024-03-14T19:34:23.182Z,13.98
2024-03-14T19:36:50.303Z,14.00
2024-03-14T19:39:17.462Z,14.02
2024-03-14T19:41:44.437Z,14.05
2024-03-14T19:44:11.497Z,14.04
2024-03-14T19:46:39.037Z,14.06
2024-03-14T19:49:06.015Z,14.07
2024-03-14T19:51:33.353Z,14.07
2024-03-14T19:54:02.320Z,14.08
2024-03-14T19:56:30.216Z,14.09
2024-03-14T19:58:58.517Z,14.08
2024-03-14T20:01:25.586Z,14.08
2024-03-14T20:03:52.789Z,14.07
2024-03-14T20:06:20.807Z,14.06
2024-03-14T20:08:48.411Z,14.06
2024-03-14T20:11:16.086Z,14.04
2024-03-14T20:13:43.154Z,14.03
2024-03-14T20:16:15.326Z,14.02
2024-03-14T20:18:42.743Z,13.99
2024-03-14T20:21:10.943Z,13.98
2024-03-14T20:23:38.105Z,13.95
2024-03-14T20:26:14.214Z,13.94
2024-03-14T20:28:42.052Z,13.92
2024-03-14T20:31:09.659Z,13.91
2024-03-14T20:33:36.976Z,13.89
2024-03-14T20:36:05.911Z,13.87
2024-03-14T20:38:33.433Z,13.84
2024-03-14T20:41:03.778Z,13.81
2024-03-14T20:43:31.808Z,13.82
2024-03-14T20:45:58.823Z,13.81
2024-03-14T20:48:26.065Z,13.83
2024-03-14T20:50:53.421Z,13.79
2024-03-14T20:53:20.382Z,13.79
2024-03-14T20:56:25.203Z,13.76
2024-03-14T20:58:52.296Z,13.76
2024-03-14T21:01:20.199Z,13.74
2024-03-14T21:03:47.707Z,13.73
2024-03-14T21:06:15.097Z,13.72
2024-03-14T21:08:58.083Z,13.73
2024-03-14T21:11:25.314Z,13.74
2024-03-14T21:13:53.270Z,13.73
2024-03-14T21:16:21.659Z,13.72
2024-03-14T21:18:49.195Z,13.69
2024-03-14T21:21:16.439Z,13.68
2024-03-14T21:23:44.379Z,13.68
2024-03-14T21:26:11.378Z,13.63
2024-03-14T21:28:38.612Z,13.61
2024-03-14T21:31:06.011Z,13.61
2024-03-14T21:33:35.947Z,13.64
2024-03-14T21:36:03.105Z,13.64
2024-03-14T21:38:30.122Z,13.63
2024-03-14T21:40:57.110Z,13.61
2024-03-14T21:43:24.296Z,13.56
2024-03-14T21:45:51.656Z,13.52
2024-03-14T21:48:19.061Z,13.47
2024-03-14T21:50:47.763Z,13.47
2024-03-14T21:53:14.831Z,13.43
2024-03-14T21:55:41.832Z,13.41
2024-03-14T21:58:08.907Z,13.34
2024-03-14T22:00:35.917Z,13.24
2024-03-14T22:03:03.890Z,13.13
2024-03-14T22:05:31.994Z,13.04
2024-03-14T22:07:59.105Z,12.99
2024-03-14T22:10:26.136Z,12.96
2024-03-14T22:12:53.428Z,12.94
2024-03-14T22:15:20.584Z,12.89
2024-03-14T22:17:47.709Z,12.86
2024-03-14T22:20:21.163Z,12.80
2024-03-14T22:22:48.999Z,12.67
2024-03-14T22:25:17.203Z,12.60
2024-03-14T22:27:44.565Z,12.54
2024-03-14T22:30:12.383Z,12.45
2024-03-14T22:32:39.629Z,12.40
2024-03-14T22:35:07.393Z,12.37
2024-03-14T22:37:34.472Z,12.30
2024-03-14T22:40:01.413Z,12.26
2024-03-14T22:42:28.470Z,12.23
2024-03-14T22:44:56.173Z,12.20
2024-03-14T22:47:24.172Z,12.17
2024-03-14T22:49:51.146Z,12.12
2024-03-14T22:52:19.006Z,12.07
2024-03-14T22:54:46.114Z,12.05
2024-03-14T22:57:13.187Z,12.02
2024-03-14T22:59:40.185Z,12.01
2024-03-14T23:02:07.124Z,11.96
2024-03-14T23:04:34.516Z,11.91
2024-03-14T23:07:03.370Z,11.87
2024-03-14T23:09:31.685Z,11.81
2024-03-14T23:12:00.457Z,11.76
2024-03-14T23:14:27.419Z,11.75
2024-03-14T23:16:55.123Z,11.67
2024-03-14T23:19:23.191Z,11.62
2024-03-14T23:21:50.342Z,11.59
2024-03-14T23:24:18.944Z,11.56
2024-03-14T23:26:46.577Z,11.56
2024-03-14T23:29:13.924Z,11.53
2024-03-14T23:31:41.889Z,11.50
2024-03-14T23:34:10.511Z,11.48
2024-03-14T23:36:38.321Z,11.47
2024-03-14T23:39:07.207Z,11.48
2024-03-14T23:41:35.041Z,11.45
2024-03-14T23:44:02.273Z,11.46
2024-03-14T23:46:30.418Z,11.49
2024-03-14T23:48:57.845Z,11.49
2024-03-14T23:51:26.241Z,11.50
2024-03-14T23:53:53.383Z,11.55
2024-03-14T23:56:20.378Z,11.56
2024-03-14T23:58:47.329Z,11.59
